sensor_id;sensor_type;location;lat;lon;timestamp;pressure;altitude;pressure_sealevel;temperature;humidity
68873;BME280;55907;50.806;12.882;2023-07-29T00:02:52;968.5;;;19.6;84.4
68873;BME280;55907;50.806;12.882;2023-07-29T00:05:54;968.5;;;19.6;84.6
68873;BME280;55907;50.806;12.882;2023-07-29T00:08:55;968.4;;;19.5;85.1
68873;BME280;55907;50.806;12.882;2023-07-29T00:11:57;968.4;;;19.5;85.1
68873;BME280;55907;50.806;12.882;2023-07-29T00:14:58;968.4;;;19.5;85.7
68873;BME280;55907;50.806;12.882;2023-07-29T00:17:59;968.4;;;19.5;85.8
68873;BME280;55907;50.806;12.882;2023-07-29T00:21:01;968.3;;;19.5;85.6
68873;BME280;55907;50.806;12.882;2023-07-29T00:24:02;968.3;;;19.4;85.9
68873;BME280;55907;50.806;12.882;2023-07-29T00:27:04;968.3;;;19.4;86.1
68873;BME280;55907;50.806;12.882;2023-07-29T00:30:06;968.3;;;19.4;86.2
68873;BME280;55907;50.806;12.882;2023-07-29T00:33:06;968.3;;;19.4;85.9
68873;BME280;55907;50.806;12.882;2023-07-29T00:36:08;968.2;;;19.4;86.0
68873;BME280;55907;50.806;12.882;2023-07-29T00:39:09;968.3;;;19.4;86.0
68873;BME280;55907;50.806;12.882;2023-07-29T00:42:10;968.2;;;19.4;86.1
68873;BME280;55907;50.806;12.882;2023-07-29T00:45:12;968.2;;;19.4;86.1
68873;BME280;55907;50.806;12.882;2023-07-29T00:48:13;968.2;;;19.3;86.3
68873;BME280;55907;50.806;12.882;2023-07-29T00:51:15;968.2;;;19.3;86.3
68873;BME280;55907;50.806;12.882;2023-07-29T00:54:16;968.1;;;19.3;86.3
68873;BME280;55907;50.806;12.882;2023-07-29T00:57:19;968.0;;;19.2;86.7
68873;BME280;55907;50.806;12.882;2023-07-29T01:00:19;968.0;;;19.2;86.5
68873;BME280;55907;50.806;12.882;2023-07-29T01:03:20;968.0;;;19.3;86.2
68873;BME280;55907;50.806;12.882;2023-07-29T01:06:27;968.0;;;19.2;86.8
68873;BME280;55907;50.806;12.882;2023-07-29T01:09:31;968.0;;;19.2;86.3
68873;BME280;55907;50.806;12.882;2023-07-29T01:12:28;968.0;;;19.2;86.8
68873;BME280;55907;50.806;12.882;2023-07-29T01:15:32;967.9;;;19.1;85.7
68873;BME280;55907;50.806;12.882;2023-07-29T01:18:29;967.9;;;19.1;87.6
68873;BME280;55907;50.806;12.882;2023-07-29T01:21:29;967.9;;;19.0;88.0
68873;BME280;55907;50.806;12.882;2023-07-29T01:24:30;967.8;;;19.0;86.7
68873;BME280;55907;50.806;12.882;2023-07-29T01:27:32;967.8;;;19.0;86.1
68873;BME280;55907;50.806;12.882;2023-07-29T01:30:38;967.8;;;19.0;85.9
68873;BME280;55907;50.806;12.882;2023-07-29T01:33:39;967.9;;;19.0;86.6
68873;BME280;55907;50.806;12.882;2023-07-29T01:36:37;967.9;;;18.9;87.5
68873;BME280;55907;50.806;12.882;2023-07-29T01:39:37;967.8;;;18.9;87.2
68873;BME280;55907;50.806;12.882;2023-07-29T01:42:38;967.9;;;18.8;87.9
68873;BME280;55907;50.806;12.882;2023-07-29T01:45:40;968.0;;;18.8;88.1
68873;BME280;55907;50.806;12.882;2023-07-29T01:48:42;968.0;;;18.7;88.5
68873;BME280;55907;50.806;12.882;2023-07-29T01:51:43;968.0;;;18.7;88.6
68873;BME280;55907;50.806;12.882;2023-07-29T01:54:44;968.0;;;18.6;88.4
68873;BME280;55907;50.806;12.882;2023-07-29T01:57:45;968.1;;;18.6;89.2
68873;BME280;55907;50.806;12.882;2023-07-29T02:00:47;968.1;;;18.6;89.1
68873;BME280;55907;50.806;12.882;2023-07-29T02:03:48;968.1;;;18.6;89.5
68873;BME280;55907;50.806;12.882;2023-07-29T02:06:50;968.1;;;18.6;89.7
68873;BME280;55907;50.806;12.882;2023-07-29T02:09:51;968.1;;;18.7;89.6
68873;BME280;55907;50.806;12.882;2023-07-29T02:12:52;968.1;;;18.7;89.1
68873;BME280;55907;50.806;12.882;2023-07-29T02:15:54;968.1;;;18.8;88.9
68873;BME280;55907;50.806;12.882;2023-07-29T02:18:55;968.1;;;18.8;88.8
68873;BME280;55907;50.806;12.882;2023-07-29T02:21:57;968.2;;;18.8;89.1
68873;BME280;55907;50.806;12.882;2023-07-29T02:24:58;968.2;;;18.9;88.7
68873;BME280;55907;50.806;12.882;2023-07-29T02:27:59;968.2;;;18.9;88.4
68873;BME280;55907;50.806;12.882;2023-07-29T02:31:09;968.2;;;18.9;88.3
68873;BME280;55907;50.806;12.882;2023-07-29T02:34:02;968.2;;;19.0;88.1
68873;BME280;55907;50.806;12.882;2023-07-29T02:37:04;968.1;;;19.0;87.9
68873;BME280;55907;50.806;12.882;2023-07-29T02:40:06;968.2;;;19.0;88.0
68873;BME280;55907;50.806;12.882;2023-07-29T02:43:06;968.2;;;19.0;87.9
68873;BME280;55907;50.806;12.882;2023-07-29T02:46:08;968.2;;;19.0;87.7
68873;BME280;55907;50.806;12.882;2023-07-29T02:49:09;968.1;;;19.0;88.0
68873;BME280;55907;50.806;12.882;2023-07-29T02:52:11;968.1;;;19.1;87.6
68873;BME280;55907;50.806;12.882;2023-07-29T02:55:12;968.1;;;19.1;87.8
68873;BME280;55907;50.806;12.882;2023-07-29T02:58:14;968.1;;;19.1;87.5
68873;BME280;55907;50.806;12.882;2023-07-29T03:01:15;968.1;;;19.2;87.5
68873;BME280;55907;50.806;12.882;2023-07-29T03:04:16;968.1;;;19.2;87.1
68873;BME280;55907;50.806;12.882;2023-07-29T03:07:18;968.1;;;19.2;87.0
68873;BME280;55907;50.806;12.882;2023-07-29T03:10:19;968.1;;;19.2;86.9
68873;BME280;55907;50.806;12.882;2023-07-29T03:13:20;968.1;;;19.2;86.9
68873;BME280;55907;50.806;12.882;2023-07-29T03:16:22;968.0;;;19.2;86.9
68873;BME280;55907;50.806;12.882;2023-07-29T03:19:23;968.0;;;19.2;86.9
68873;BME280;55907;50.806;12.882;2023-07-29T03:22:25;968.0;;;19.3;86.5
68873;BME280;55907;50.806;12.882;2023-07-29T03:25:26;967.9;;;19.3;86.4
68873;BME280;55907;50.806;12.882;2023-07-29T03:28:29;967.8;;;19.3;86.4
68873;BME280;55907;50.806;12.882;2023-07-29T03:31:29;967.9;;;19.3;86.4
68873;BME280;55907;50.806;12.882;2023-07-29T03:34:30;967.9;;;19.3;85.8
68873;BME280;55907;50.806;12.882;2023-07-29T03:37:32;967.9;;;19.3;85.7
68873;BME280;55907;50.806;12.882;2023-07-29T03:40:33;968.0;;;19.4;85.4
68873;BME280;55907;50.806;12.882;2023-07-29T03:43:34;968.0;;;19.4;85.0
68873;BME280;55907;50.806;12.882;2023-07-29T03:46:36;968.0;;;19.4;84.9
68873;BME280;55907;50.806;12.882;2023-07-29T03:49:37;968.0;;;19.4;85.1
68873;BME280;55907;50.806;12.882;2023-07-29T03:52:39;968.0;;;19.4;85.1
68873;BME280;55907;50.806;12.882;2023-07-29T03:55:40;968.0;;;19.4;85.1
68873;BME280;55907;50.806;12.882;2023-07-29T03:58:42;968.1;;;19.5;84.7
68873;BME280;55907;50.806;12.882;2023-07-29T04:01:43;968.1;;;19.5;85.0
68873;BME280;55907;50.806;12.882;2023-07-29T04:04:44;968.0;;;19.5;85.0
68873;BME280;55907;50.806;12.882;2023-07-29T04:07:46;968.1;;;19.5;84.5
68873;BME280;55907;50.806;12.882;2023-07-29T04:10:47;968.0;;;19.5;84.8
68873;BME280;55907;50.806;12.882;2023-07-29T04:13:48;968.0;;;19.5;84.7
68873;BME280;55907;50.806;12.882;2023-07-29T04:16:50;968.0;;;19.5;84.7
68873;BME280;55907;50.806;12.882;2023-07-29T04:19:51;968.0;;;19.5;84.6
68873;BME280;55907;50.806;12.882;2023-07-29T04:22:53;967.9;;;19.5;84.3
68873;BME280;55907;50.806;12.882;2023-07-29T04:25:54;967.9;;;19.6;84.0
68873;BME280;55907;50.806;12.882;2023-07-29T04:28:55;968.0;;;19.7;83.8
68873;BME280;55907;50.806;12.882;2023-07-29T04:31:57;967.9;;;19.7;83.9
68873;BME280;55907;50.806;12.882;2023-07-29T04:34:58;968.0;;;19.8;83.4
68873;BME280;55907;50.806;12.882;2023-07-29T04:37:59;967.9;;;19.8;83.3
68873;BME280;55907;50.806;12.882;2023-07-29T04:41:01;968.0;;;19.8;83.0
68873;BME280;55907;50.806;12.882;2023-07-29T04:44:03;967.9;;;19.9;82.6
68873;BME280;55907;50.806;12.882;2023-07-29T04:47:04;968.0;;;19.9;82.4
68873;BME280;55907;50.806;12.882;2023-07-29T04:50:06;968.0;;;19.9;82.2
68873;BME280;55907;50.806;12.882;2023-07-29T04:53:06;967.9;;;19.9;82.2
68873;BME280;55907;50.806;12.882;2023-07-29T04:56:08;967.9;;;20.0;81.7
68873;BME280;55907;50.806;12.882;2023-07-29T04:59:09;967.8;;;20.1;81.3
68873;BME280;55907;50.806;12.882;2023-07-29T05:02:10;967.8;;;20.1;81.0
68873;BME280;55907;50.806;12.882;2023-07-29T05:05:12;967.8;;;20.2;80.3
68873;BME280;55907;50.806;12.882;2023-07-29T05:08:13;967.8;;;20.3;79.9
68873;BME280;55907;50.806;12.882;2023-07-29T05:11:15;967.7;;;20.4;79.3
68873;BME280;55907;50.806;12.882;2023-07-29T05:14:17;967.7;;;20.5;78.4
68873;BME280;55907;50.806;12.882;2023-07-29T05:17:17;967.7;;;20.6;77.8
68873;BME280;55907;50.806;12.882;2023-07-29T05:20:19;967.7;;;20.7;77.1
68873;BME280;55907;50.806;12.882;2023-07-29T05:23:20;967.6;;;20.8;77.0
68873;BME280;55907;50.806;12.882;2023-07-29T05:26:21;967.6;;;20.8;76.4
68873;BME280;55907;50.806;12.882;2023-07-29T05:29:23;967.6;;;20.9;76.0
68873;BME280;55907;50.806;12.882;2023-07-29T05:32:24;967.6;;;21.0;75.5
68873;BME280;55907;50.806;12.882;2023-07-29T05:35:26;967.6;;;21.2;75.0
68873;BME280;55907;50.806;12.882;2023-07-29T05:38:27;967.6;;;21.3;73.7
68873;BME280;55907;50.806;12.882;2023-07-29T05:41:28;967.7;;;21.3;73.4
68873;BME280;55907;50.806;12.882;2023-07-29T05:44:30;967.7;;;21.3;74.0
68873;BME280;55907;50.806;12.882;2023-07-29T05:47:31;967.7;;;21.2;74.0
68873;BME280;55907;50.806;12.882;2023-07-29T05:50:32;967.8;;;21.2;74.4
68873;BME280;55907;50.806;12.882;2023-07-29T05:53:34;967.8;;;21.2;74.0
68873;BME280;55907;50.806;12.882;2023-07-29T05:56:35;967.8;;;21.2;73.6
68873;BME280;55907;50.806;12.882;2023-07-29T05:59:37;967.9;;;21.3;73.4
68873;BME280;55907;50.806;12.882;2023-07-29T06:02:38;967.9;;;21.4;73.0
68873;BME280;55907;50.806;12.882;2023-07-29T06:05:39;967.8;;;21.5;72.4
68873;BME280;55907;50.806;12.882;2023-07-29T06:08:41;967.8;;;21.5;72.4
68873;BME280;55907;50.806;12.882;2023-07-29T06:11:42;967.8;;;21.6;71.9
68873;BME280;55907;50.806;12.882;2023-07-29T06:14:43;967.8;;;21.8;71.1
68873;BME280;55907;50.806;12.882;2023-07-29T06:17:45;967.8;;;22.0;69.8
68873;BME280;55907;50.806;12.882;2023-07-29T06:20:46;967.8;;;22.4;68.6
68873;BME280;55907;50.806;12.882;2023-07-29T06:23:48;967.7;;;22.6;67.2
68873;BME280;55907;50.806;12.882;2023-07-29T06:26:49;967.8;;;22.7;66.3
68873;BME280;55907;50.806;12.882;2023-07-29T06:29:50;967.7;;;22.8;65.6
68873;BME280;55907;50.806;12.882;2023-07-29T06:32:52;967.7;;;23.0;65.2
68873;BME280;55907;50.806;12.882;2023-07-29T06:35:53;967.8;;;23.0;64.8
68873;BME280;55907;50.806;12.882;2023-07-29T06:38:54;967.8;;;22.9;64.6
68873;BME280;55907;50.806;12.882;2023-07-29T06:41:56;967.8;;;23.0;64.6
68873;BME280;55907;50.806;12.882;2023-07-29T06:44:57;967.8;;;23.0;63.7
68873;BME280;55907;50.806;12.882;2023-07-29T06:47:58;967.8;;;22.9;64.2
68873;BME280;55907;50.806;12.882;2023-07-29T06:51:00;967.8;;;23.0;64.2
68873;BME280;55907;50.806;12.882;2023-07-29T06:54:01;967.7;;;23.1;63.8
68873;BME280;55907;50.806;12.882;2023-07-29T06:57:03;967.7;;;23.4;62.4
68873;BME280;55907;50.806;12.882;2023-07-29T07:00:05;967.8;;;23.4;61.8
68873;BME280;55907;50.806;12.882;2023-07-29T07:03:05;967.7;;;23.1;62.3
68873;BME280;55907;50.806;12.882;2023-07-29T07:06:07;967.8;;;22.8;63.3
68873;BME280;55907;50.806;12.882;2023-07-29T07:09:08;967.7;;;22.8;63.8
68873;BME280;55907;50.806;12.882;2023-07-29T07:12:09;967.7;;;22.8;63.6
68873;BME280;55907;50.806;12.882;2023-07-29T07:15:11;967.6;;;22.9;63.6
68873;BME280;55907;50.806;12.882;2023-07-29T07:18:12;967.6;;;23.1;63.6
68873;BME280;55907;50.806;12.882;2023-07-29T07:21:13;967.5;;;23.4;63.3
68873;BME280;55907;50.806;12.882;2023-07-29T07:24:15;967.5;;;23.5;62.5
68873;BME280;55907;50.806;12.882;2023-07-29T07:27:16;967.4;;;23.5;61.9
68873;BME280;55907;50.806;12.882;2023-07-29T07:30:17;967.5;;;23.5;61.9
68873;BME280;55907;50.806;12.882;2023-07-29T07:33:19;967.4;;;23.7;61.1
68873;BME280;55907;50.806;12.882;2023-07-29T07:36:20;967.4;;;23.9;60.2
68873;BME280;55907;50.806;12.882;2023-07-29T07:39:22;967.3;;;24.0;60.3
68873;BME280;55907;50.806;12.882;2023-07-29T07:42:23;967.2;;;24.2;59.0
68873;BME280;55907;50.806;12.882;2023-07-29T07:45:24;967.2;;;24.4;59.0
68873;BME280;55907;50.806;12.882;2023-07-29T07:48:26;967.1;;;24.5;58.3
68873;BME280;55907;50.806;12.882;2023-07-29T07:51:27;967.0;;;24.7;57.5
68873;BME280;55907;50.806;12.882;2023-07-29T07:54:28;967.0;;;24.9;57.1
68873;BME280;55907;50.806;12.882;2023-07-29T07:57:30;967.0;;;25.0;56.4
68873;BME280;55907;50.806;12.882;2023-07-29T08:00:31;966.9;;;25.1;56.4
68873;BME280;55907;50.806;12.882;2023-07-29T08:03:33;967.0;;;25.2;56.0
68873;BME280;55907;50.806;12.882;2023-07-29T08:06:34;967.0;;;25.3;54.8
68873;BME280;55907;50.806;12.882;2023-07-29T08:09:35;967.1;;;25.6;54.9
68873;BME280;55907;50.806;12.882;2023-07-29T08:12:36;967.2;;;25.9;54.3
68873;BME280;55907;50.806;12.882;2023-07-29T08:15:38;967.3;;;25.9;53.6
68873;BME280;55907;50.806;12.882;2023-07-29T08:18:39;967.4;;;25.6;53.4
68873;BME280;55907;50.806;12.882;2023-07-29T08:21:40;967.4;;;25.3;54.4
68873;BME280;55907;50.806;12.882;2023-07-29T08:24:42;967.3;;;25.1;55.2
68873;BME280;55907;50.806;12.882;2023-07-29T08:27:43;967.5;;;24.9;55.6
68873;BME280;55907;50.806;12.882;2023-07-29T08:30:44;967.4;;;24.7;55.4
68873;BME280;55907;50.806;12.882;2023-07-29T08:33:46;967.4;;;24.4;55.4
68873;BME280;55907;50.806;12.882;2023-07-29T08:36:47;967.4;;;24.3;55.7
68873;BME280;55907;50.806;12.882;2023-07-29T08:39:48;967.5;;;24.3;54.6
68873;BME280;55907;50.806;12.882;2023-07-29T08:42:50;967.4;;;24.5;53.9
68873;BME280;55907;50.806;12.882;2023-07-29T08:45:52;967.3;;;24.8;52.6
68873;BME280;55907;50.806;12.882;2023-07-29T08:48:53;967.3;;;25.2;53.0
68873;BME280;55907;50.806;12.882;2023-07-29T08:51:54;967.3;;;25.4;51.9
68873;BME280;55907;50.806;12.882;2023-07-29T08:54:56;967.3;;;25.5;51.7
68873;BME280;55907;50.806;12.882;2023-07-29T08:57:57;967.4;;;25.6;52.1
68873;BME280;55907;50.806;12.882;2023-07-29T09:00:58;967.3;;;25.7;50.8
68873;BME280;55907;50.806;12.882;2023-07-29T09:03:59;967.2;;;26.2;49.8
68873;BME280;55907;50.806;12.882;2023-07-29T09:07:01;967.4;;;26.9;49.8
68873;BME280;55907;50.806;12.882;2023-07-29T09:10:02;967.2;;;27.5;46.7
68873;BME280;55907;50.806;12.882;2023-07-29T09:13:04;967.3;;;27.3;46.9
68873;BME280;55907;50.806;12.882;2023-07-29T09:16:05;967.4;;;27.0;48.1
68873;BME280;55907;50.806;12.882;2023-07-29T09:19:06;967.4;;;25.9;52.4
68873;BME280;55907;50.806;12.882;2023-07-29T09:22:17;967.3;;;25.2;57.6
68873;BME280;55907;50.806;12.882;2023-07-29T09:25:09;967.3;;;25.0;58.7
68873;BME280;55907;50.806;12.882;2023-07-29T09:28:11;967.3;;;25.2;59.6
68873;BME280;55907;50.806;12.882;2023-07-29T09:31:18;967.2;;;25.5;60.0
68873;BME280;55907;50.806;12.882;2023-07-29T09:34:15;967.2;;;25.6;59.0
68873;BME280;55907;50.806;12.882;2023-07-29T09:37:15;967.2;;;25.7;58.3
68873;BME280;55907;50.806;12.882;2023-07-29T09:40:15;967.2;;;25.6;57.1
68873;BME280;55907;50.806;12.882;2023-07-29T09:43:17;967.2;;;25.4;56.5
68873;BME280;55907;50.806;12.882;2023-07-29T09:46:18;967.1;;;25.0;56.8
68873;BME280;55907;50.806;12.882;2023-07-29T09:49:19;967.2;;;24.8;57.4
68873;BME280;55907;50.806;12.882;2023-07-29T09:52:22;967.2;;;24.7;56.7
68873;BME280;55907;50.806;12.882;2023-07-29T09:55:23;967.3;;;24.5;56.9
68873;BME280;55907;50.806;12.882;2023-07-29T09:58:26;967.2;;;24.4;57.3
68873;BME280;55907;50.806;12.882;2023-07-29T10:01:25;967.1;;;24.1;56.8
68873;BME280;55907;50.806;12.882;2023-07-29T10:04:26;967.1;;;24.2;57.6
68873;BME280;55907;50.806;12.882;2023-07-29T10:07:28;967.2;;;24.2;57.2
68873;BME280;55907;50.806;12.882;2023-07-29T10:10:29;967.2;;;24.3;57.4
68873;BME280;55907;50.806;12.882;2023-07-29T10:13:30;967.1;;;24.4;57.3
68873;BME280;55907;50.806;12.882;2023-07-29T10:16:32;967.2;;;24.5;57.5
68873;BME280;55907;50.806;12.882;2023-07-29T10:19:34;967.3;;;24.6;57.0
68873;BME280;55907;50.806;12.882;2023-07-29T10:22:36;967.2;;;24.6;56.4
68873;BME280;55907;50.806;12.882;2023-07-29T10:25:38;967.2;;;24.4;56.3
68873;BME280;55907;50.806;12.882;2023-07-29T10:28:40;967.2;;;24.4;56.6
68873;BME280;55907;50.806;12.882;2023-07-29T10:31:39;967.2;;;24.4;56.3
68873;BME280;55907;50.806;12.882;2023-07-29T10:34:40;967.2;;;24.4;56.3
68873;BME280;55907;50.806;12.882;2023-07-29T10:37:42;967.2;;;24.4;56.5
68873;BME280;55907;50.806;12.882;2023-07-29T10:40:44;967.1;;;24.2;56.7
68873;BME280;55907;50.806;12.882;2023-07-29T10:43:44;967.2;;;24.3;57.0
68873;BME280;55907;50.806;12.882;2023-07-29T10:46:45;967.2;;;24.2;57.5
68873;BME280;55907;50.806;12.882;2023-07-29T10:49:48;967.2;;;24.3;58.1
68873;BME280;55907;50.806;12.882;2023-07-29T10:52:50;967.1;;;24.4;57.9
68873;BME280;55907;50.806;12.882;2023-07-29T10:55:51;967.2;;;24.3;58.0
68873;BME280;55907;50.806;12.882;2023-07-29T10:58:50;967.2;;;24.1;58.9
68873;BME280;55907;50.806;12.882;2023-07-29T11:01:57;967.2;;;24.0;59.5
68873;BME280;55907;50.806;12.882;2023-07-29T11:04:53;967.2;;;23.7;60.2
68873;BME280;55907;50.806;12.882;2023-07-29T11:07:54;967.2;;;23.7;60.6
68873;BME280;55907;50.806;12.882;2023-07-29T11:11:02;967.2;;;23.6;61.1
68873;BME280;55907;50.806;12.882;2023-07-29T11:13:59;967.2;;;23.6;61.9
68873;BME280;55907;50.806;12.882;2023-07-29T11:16:58;967.3;;;23.6;61.9
68873;BME280;55907;50.806;12.882;2023-07-29T11:20:01;967.2;;;23.5;61.6
68873;BME280;55907;50.806;12.882;2023-07-29T11:23:03;967.3;;;23.3;62.3
68873;BME280;55907;50.806;12.882;2023-07-29T11:26:04;967.2;;;23.2;62.8
68873;BME280;55907;50.806;12.882;2023-07-29T11:29:04;967.1;;;23.1;63.1
68873;BME280;55907;50.806;12.882;2023-07-29T11:32:06;967.2;;;23.3;63.1
68873;BME280;55907;50.806;12.882;2023-07-29T11:35:08;967.0;;;23.3;62.9
68873;BME280;55907;50.806;12.882;2023-07-29T11:38:08;967.0;;;23.4;62.7
68873;BME280;55907;50.806;12.882;2023-07-29T11:41:09;967.0;;;23.3;63.0
68873;BME280;55907;50.806;12.882;2023-07-29T11:44:16;967.0;;;23.3;62.8
68873;BME280;55907;50.806;12.882;2023-07-29T11:47:12;967.2;;;23.3;63.1
68873;BME280;55907;50.806;12.882;2023-07-29T11:50:14;967.1;;;23.3;63.3
68873;BME280;55907;50.806;12.882;2023-07-29T11:53:15;967.1;;;23.3;63.0
68873;BME280;55907;50.806;12.882;2023-07-29T11:56:16;967.1;;;23.3;63.0
68873;BME280;55907;50.806;12.882;2023-07-29T11:59:17;967.2;;;23.3;62.2
68873;BME280;55907;50.806;12.882;2023-07-29T12:02:20;967.0;;;23.2;62.4
68873;BME280;55907;50.806;12.882;2023-07-29T12:05:22;967.0;;;23.0;62.9
68873;BME280;55907;50.806;12.882;2023-07-29T12:08:22;966.9;;;22.9;63.5
68873;BME280;55907;50.806;12.882;2023-07-29T12:11:23;967.0;;;22.8;64.9
68873;BME280;55907;50.806;12.882;2023-07-29T12:14:25;966.7;;;22.4;67.3
68873;BME280;55907;50.806;12.882;2023-07-29T12:17:25;966.8;;;22.1;69.7
68873;BME280;55907;50.806;12.882;2023-07-29T12:20:29;966.7;;;21.6;70.9
68873;BME280;55907;50.806;12.882;2023-07-29T12:23:29;966.6;;;21.3;72.5
68873;BME280;55907;50.806;12.882;2023-07-29T12:26:30;966.7;;;21.2;73.7
68873;BME280;55907;50.806;12.882;2023-07-29T12:29:31;966.8;;;21.2;74.8
68873;BME280;55907;50.806;12.882;2023-07-29T12:32:32;966.8;;;21.4;75.8
68873;BME280;55907;50.806;12.882;2023-07-29T12:35:35;966.8;;;21.7;74.9
68873;BME280;55907;50.806;12.882;2023-07-29T12:38:35;966.8;;;22.0;74.0
68873;BME280;55907;50.806;12.882;2023-07-29T12:41:36;966.7;;;22.5;71.4
68873;BME280;55907;50.806;12.882;2023-07-29T12:44:38;966.6;;;22.7;70.6
68873;BME280;55907;50.806;12.882;2023-07-29T12:47:39;966.8;;;22.7;69.9
68873;BME280;55907;50.806;12.882;2023-07-29T12:50:41;966.8;;;22.6;70.1
68873;BME280;55907;50.806;12.882;2023-07-29T12:53:42;966.8;;;22.6;70.6
68873;BME280;55907;50.806;12.882;2023-07-29T12:56:43;966.7;;;22.9;69.7
68873;BME280;55907;50.806;12.882;2023-07-29T12:59:45;966.6;;;23.1;68.7
68873;BME280;55907;50.806;12.882;2023-07-29T13:02:46;966.6;;;23.4;67.3
68873;BME280;55907;50.806;12.882;2023-07-29T13:05:47;966.7;;;23.5;65.8
68873;BME280;55907;50.806;12.882;2023-07-29T13:08:49;966.5;;;23.8;65.1
68873;BME280;55907;50.806;12.882;2023-07-29T13:11:50;966.6;;;24.1;63.6
68873;BME280;55907;50.806;12.882;2023-07-29T13:14:52;966.5;;;24.3;61.4
68873;BME280;55907;50.806;12.882;2023-07-29T13:17:53;966.5;;;24.4;60.0
68873;BME280;55907;50.806;12.882;2023-07-29T13:20:54;966.4;;;24.5;59.3
68873;BME280;55907;50.806;12.882;2023-07-29T13:23:56;966.5;;;24.5;58.2
68873;BME280;55907;50.806;12.882;2023-07-29T13:26:57;966.3;;;24.7;57.1
68873;BME280;55907;50.806;12.882;2023-07-29T13:29:58;966.5;;;24.7;55.0
68873;BME280;55907;50.806;12.882;2023-07-29T13:33:00;966.4;;;24.7;53.9
68873;BME280;55907;50.806;12.882;2023-07-29T13:36:01;966.5;;;24.9;55.1
68873;BME280;55907;50.806;12.882;2023-07-29T13:39:03;966.5;;;25.0;55.5
68873;BME280;55907;50.806;12.882;2023-07-29T13:42:04;966.4;;;24.9;54.3
68873;BME280;55907;50.806;12.882;2023-07-29T13:45:06;966.4;;;24.9;54.7
68873;BME280;55907;50.806;12.882;2023-07-29T13:48:07;966.3;;;25.1;53.9
68873;BME280;55907;50.806;12.882;2023-07-29T13:51:08;966.3;;;25.4;53.3
68873;BME280;55907;50.806;12.882;2023-07-29T13:54:09;966.3;;;25.5;52.2
68873;BME280;55907;50.806;12.882;2023-07-29T13:57:11;966.2;;;25.4;52.1
68873;BME280;55907;50.806;12.882;2023-07-29T14:00:12;966.2;;;25.3;53.1
68873;BME280;55907;50.806;12.882;2023-07-29T14:03:13;966.1;;;25.4;52.9
68873;BME280;55907;50.806;12.882;2023-07-29T14:06:15;966.2;;;25.4;52.5
68873;BME280;55907;50.806;12.882;2023-07-29T14:09:16;966.1;;;25.5;51.5
68873;BME280;55907;50.806;12.882;2023-07-29T14:12:17;966.2;;;25.6;49.8
68873;BME280;55907;50.806;12.882;2023-07-29T14:15:19;966.2;;;25.6;49.8
68873;BME280;55907;50.806;12.882;2023-07-29T14:18:20;966.1;;;25.7;49.7
68873;BME280;55907;50.806;12.882;2023-07-29T14:21:21;966.1;;;25.8;49.8
68873;BME280;55907;50.806;12.882;2023-07-29T14:24:23;966.0;;;25.9;50.5
68873;BME280;55907;50.806;12.882;2023-07-29T14:27:24;966.0;;;25.7;49.9
68873;BME280;55907;50.806;12.882;2023-07-29T14:30:26;966.0;;;25.8;49.8
68873;BME280;55907;50.806;12.882;2023-07-29T14:33:27;966.0;;;25.9;49.8
68873;BME280;55907;50.806;12.882;2023-07-29T14:36:28;965.9;;;25.7;49.0
68873;BME280;55907;50.806;12.882;2023-07-29T14:39:30;965.8;;;25.7;49.8
68873;BME280;55907;50.806;12.882;2023-07-29T14:42:31;965.8;;;25.8;49.9
68873;BME280;55907;50.806;12.882;2023-07-29T14:45:32;965.9;;;25.6;50.0
68873;BME280;55907;50.806;12.882;2023-07-29T14:48:34;965.9;;;25.7;50.1
68873;BME280;55907;50.806;12.882;2023-07-29T14:51:35;965.8;;;25.7;49.5
68873;BME280;55907;50.806;12.882;2023-07-29T14:54:37;965.9;;;25.6;49.7
68873;BME280;55907;50.806;12.882;2023-07-29T14:57:38;965.8;;;25.7;50.4
68873;BME280;55907;50.806;12.882;2023-07-29T15:00:39;965.8;;;25.8;50.0
68873;BME280;55907;50.806;12.882;2023-07-29T15:03:40;965.8;;;25.9;49.8
68873;BME280;55907;50.806;12.882;2023-07-29T15:06:42;965.8;;;25.9;49.7
68873;BME280;55907;50.806;12.882;2023-07-29T15:09:43;965.8;;;25.8;50.0
68873;BME280;55907;50.806;12.882;2023-07-29T15:12:45;965.8;;;25.9;50.2
68873;BME280;55907;50.806;12.882;2023-07-29T15:15:46;965.8;;;25.7;49.9
68873;BME280;55907;50.806;12.882;2023-07-29T15:18:47;965.8;;;25.4;50.3
68873;BME280;55907;50.806;12.882;2023-07-29T15:21:49;965.8;;;25.3;50.5
68873;BME280;55907;50.806;12.882;2023-07-29T15:24:50;965.8;;;25.1;50.6
68873;BME280;55907;50.806;12.882;2023-07-29T15:27:51;965.8;;;25.0;50.6
68873;BME280;55907;50.806;12.882;2023-07-29T15:30:53;965.9;;;24.9;50.8
68873;BME280;55907;50.806;12.882;2023-07-29T15:33:54;965.8;;;24.8;50.9
68873;BME280;55907;50.806;12.882;2023-07-29T15:36:55;965.9;;;24.8;51.5
68873;BME280;55907;50.806;12.882;2023-07-29T15:39:57;966.0;;;24.8;51.7
68873;BME280;55907;50.806;12.882;2023-07-29T15:42:58;965.9;;;24.8;51.4
68873;BME280;55907;50.806;12.882;2023-07-29T15:45:59;965.9;;;24.8;51.4
68873;BME280;55907;50.806;12.882;2023-07-29T15:49:01;966.0;;;24.6;51.5
68873;BME280;55907;50.806;12.882;2023-07-29T15:52:02;966.1;;;24.7;51.7
68873;BME280;55907;50.806;12.882;2023-07-29T15:55:04;966.1;;;24.6;51.4
68873;BME280;55907;50.806;12.882;2023-07-29T15:58:05;966.1;;;24.6;51.0
68873;BME280;55907;50.806;12.882;2023-07-29T16:01:06;966.2;;;24.5;50.7
68873;BME280;55907;50.806;12.882;2023-07-29T16:04:08;966.2;;;24.6;51.3
68873;BME280;55907;50.806;12.882;2023-07-29T16:07:09;966.3;;;24.6;51.7
68873;BME280;55907;50.806;12.882;2023-07-29T16:10:10;966.3;;;24.7;52.0
68873;BME280;55907;50.806;12.882;2023-07-29T16:13:12;966.5;;;24.6;51.7
68873;BME280;55907;50.806;12.882;2023-07-29T16:16:13;966.5;;;23.9;53.6
68873;BME280;55907;50.806;12.882;2023-07-29T16:19:22;966.6;;;23.3;55.7
68873;BME280;55907;50.806;12.882;2023-07-29T16:22:16;966.9;;;22.8;57.4
68873;BME280;55907;50.806;12.882;2023-07-29T16:25:17;966.9;;;22.3;59.4
68873;BME280;55907;50.806;12.882;2023-07-29T16:28:19;967.2;;;22.0;61.2
68873;BME280;55907;50.806;12.882;2023-07-29T16:31:20;967.5;;;21.7;64.1
68873;BME280;55907;50.806;12.882;2023-07-29T16:34:21;967.6;;;21.0;75.2
68873;BME280;55907;50.806;12.882;2023-07-29T16:37:23;967.2;;;19.8;86.7
68873;BME280;55907;50.806;12.882;2023-07-29T16:40:24;967.2;;;19.1;90.7
68873;BME280;55907;50.806;12.882;2023-07-29T16:43:26;967.3;;;18.8;91.7
68873;BME280;55907;50.806;12.882;2023-07-29T16:46:27;967.4;;;18.5;92.3
68873;BME280;55907;50.806;12.882;2023-07-29T16:49:29;967.4;;;18.2;91.3
68873;BME280;55907;50.806;12.882;2023-07-29T16:52:30;967.4;;;18.1;89.0
68873;BME280;55907;50.806;12.882;2023-07-29T16:55:31;967.3;;;18.0;89.5